Time;durP1;ratioP1;P1;durP2;ratioP2;P2;SDS_P1;SDS_P2;PMS_P1;PMS_P2;Temp;Humidity;BMP_temperature;BMP_pressure;BME280_temperature;BME280_humidity;BME280_pressure;Samples;Min_cycle;Max_cycle;Signal;HPM_P1;HPM_P2
2021/10/09 00:02:09;;;;;;;20.50;18.40;;;11.80;88.50;;;;;;5031876;28;20730;-88
2021/10/09 00:04:35;;;;;;;20.93;18.77;;;11.80;88.30;;;;;;5019217;28;20227;-88
2021/10/09 00:07:01;;;;;;;20.27;18.13;;;11.70;89.00;;;;;;5023564;28;20247;-88
2021/10/09 00:09:28;;;;;;;20.17;18.10;;;11.70;88.60;;;;;;5015637;28;20196;-89
2021/10/09 00:11:54;;;;;;;20.83;18.73;;;11.70;88.80;;;;;;5015827;28;20223;-88
2021/10/09 00:14:20;;;;;;;21.10;18.93;;;11.70;88.40;;;;;;5008430;28;20200;-89
2021/10/09 00:16:46;;;;;;;20.43;18.30;;;11.70;88.20;;;;;;5012190;28;20534;-88
2021/10/09 00:19:13;;;;;;;21.47;18.40;;;11.70;88.50;;;;;;5044819;28;20203;-89
2021/10/09 00:21:43;;;;;;;21.03;18.93;;;11.50;88.60;;;;;;5019619;28;20221;-88
2021/10/09 00:24:17;;;;;;;24.57;22.00;;;11.40;89.30;;;;;;5018194;28;20196;-88
2021/10/09 00:26:44;;;;;;;20.50;18.40;;;11.40;89.60;;;;;;5015610;28;20199;-88
2021/10/09 00:29:10;;;;;;;20.97;18.83;;;11.40;89.80;;;;;;5016244;28;20277;-88
2021/10/09 00:31:36;;;;;;;22.57;18.77;;;11.40;89.50;;;;;;5031665;28;20580;-89
2021/10/09 00:34:03;;;;;;;21.10;18.80;;;11.40;89.70;;;;;;5000287;28;20260;-89
2021/10/09 00:36:28;;;;;;;21.90;19.43;;;11.30;89.60;;;;;;5022560;28;20189;-88
2021/10/09 00:38:54;;;;;;;21.87;19.37;;;11.40;89.50;;;;;;5019410;28;20243;-89
2021/10/09 00:41:21;;;;;;;22.23;19.57;;;11.40;89.00;;;;;;5016679;28;20723;-88
2021/10/09 00:43:46;;;;;;;21.63;17.80;;;11.40;89.10;;;;;;5015273;28;20208;-88
2021/10/09 00:46:12;;;;;;;21.97;18.93;;;11.50;89.80;;;;;;5010659;28;20191;-88
2021/10/09 00:48:38;;;;;;;22.20;18.83;;;11.60;88.80;;;;;;5017760;28;20465;-88
2021/10/09 00:51:05;;;;;;;21.30;19.10;;;11.50;88.30;;;;;;5037843;28;20234;-88
2021/10/09 00:53:32;;;;;;;19.13;16.97;;;11.40;88.50;;;;;;5021453;28;20200;-88
2021/10/09 00:56:01;;;;;;;21.63;19.43;;;11.40;89.40;;;;;;5008103;28;20189;-88
2021/10/09 00:58:28;;;;;;;22.00;19.60;;;11.30;89.10;;;;;;5014667;28;20195;-89
2021/10/09 01:00:55;;;;;;;22.30;18.67;;;11.30;89.70;;;;;;5018639;28;20249;-89
2021/10/09 01:03:21;;;;;;;22.30;19.93;;;11.20;89.60;;;;;;5015382;28;20230;-88
2021/10/09 01:05:48;;;;;;;22.23;19.90;;;11.10;89.70;;;;;;5017107;28;20649;-88
2021/10/09 01:08:14;;;;;;;25.30;20.83;;;11.00;90.20;;;;;;5022844;28;20755;-89
2021/10/09 01:10:41;;;;;;;22.73;20.07;;;11.00;90.30;;;;;;5036150;28;20263;-88
2021/10/09 01:13:07;;;;;;;22.73;19.17;;;11.00;90.40;;;;;;5030762;28;20271;-88
2021/10/09 01:15:34;;;;;;;22.90;20.50;;;10.80;90.90;;;;;;5018291;28;20187;-88
2021/10/09 01:18:11;;;;;;;23.47;20.70;;;10.80;91.50;;;;;;5022556;28;20200;-88
2021/10/09 01:20:55;;;;;;;22.90;19.60;;;10.70;91.50;;;;;;5033396;28;20193;-88
2021/10/09 01:23:22;;;;;;;22.60;19.93;;;10.80;91.90;;;;;;5019427;28;20608;-89
2021/10/09 01:25:49;;;;;;;20.93;18.63;;;10.80;91.50;;;;;;5021926;28;20225;-88
2021/10/09 01:28:16;;;;;;;21.47;18.97;;;10.80;91.80;;;;;;5020857;28;20249;-88
2021/10/09 01:30:42;;;;;;;20.97;18.87;;;10.80;91.30;;;;;;5017606;28;20200;-88
2021/10/09 01:33:08;;;;;;;20.87;18.67;;;10.90;90.80;;;;;;5035638;28;20216;-88
2021/10/09 01:35:52;;;;;;;23.67;19.10;;;10.80;90.70;;;;;;5020821;28;20194;-89
2021/10/09 01:38:19;;;;;;;20.60;18.37;;;10.80;90.50;;;;;;5015716;28;20190;-88
2021/10/09 01:40:45;;;;;;;24.40;18.07;;;10.80;90.60;;;;;;5032519;28;20226;-89
2021/10/09 01:43:13;;;;;;;21.93;19.37;;;10.80;90.60;;;;;;5012281;28;20223;-88
2021/10/09 01:45:43;;;;;;;20.93;18.73;;;10.80;90.50;;;;;;5017920;28;20188;-88
2021/10/09 01:48:08;;;;;;;20.37;18.27;;;10.80;90.40;;;;;;5016669;28;20258;-88
2021/10/09 01:50:35;;;;;;;23.73;20.53;;;10.80;90.40;;;;;;5014029;28;20607;-88
2021/10/09 01:53:01;;;;;;;21.03;18.83;;;10.80;89.90;;;;;;5014286;28;20579;-88
2021/10/09 01:55:27;;;;;;;23.80;19.70;;;10.80;90.10;;;;;;5014041;28;20668;-89
2021/10/09 01:57:53;;;;;;;22.23;19.70;;;10.80;90.00;;;;;;5014199;28;20290;-89
2021/10/09 02:00:19;;;;;;;21.47;19.27;;;10.80;89.50;;;;;;5015296;28;20273;-89
2021/10/09 02:02:45;;;;;;;23.43;19.40;;;10.80;90.00;;;;;;5013443;28;20224;-89
2021/10/09 02:05:11;;;;;;;19.80;17.80;;;10.80;89.70;;;;;;5012084;28;20184;-88
2021/10/09 02:07:37;;;;;;;20.23;18.13;;;10.90;90.30;;;;;;5012408;28;20203;-88
2021/10/09 02:10:04;;;;;;;21.70;19.47;;;11.00;89.90;;;;;;5031370;28;20388;-88
2021/10/09 02:12:31;;;;;;;22.33;19.57;;;11.00;88.90;;;;;;5013862;28;20283;-89
2021/10/09 02:18:14;;;;;;;22.33;19.63;;;11.00;88.00;;;;;;4991379;28;20204;-88
2021/10/09 02:26:04;;;;;;;21.20;19.00;;;10.70;89.80;;;;;;5024683;28;20249;-89
2021/10/09 02:28:30;;;;;;;21.00;19.00;;;10.70;89.70;;;;;;5015630;28;20270;-88
2021/10/09 02:30:55;;;;;;;21.53;19.23;;;10.70;89.50;;;;;;5028121;28;20164;-88
2021/10/09 02:33:22;;;;;;;22.37;17.97;;;10.70;89.90;;;;;;5026764;28;20223;-88
2021/10/09 02:35:48;;;;;;;21.30;19.17;;;10.70;89.80;;;;;;5026303;28;20206;-88
2021/10/09 02:38:14;;;;;;;21.07;18.10;;;10.70;89.90;;;;;;5021672;28;20253;-88
2021/10/09 02:40:42;;;;;;;22.87;19.10;;;10.60;89.80;;;;;;5018280;28;20195;-88
2021/10/09 02:43:08;;;;;;;26.20;18.90;;;10.50;90.10;;;;;;5012854;28;20222;-89
2021/10/09 02:45:33;;;;;;;22.47;20.07;;;10.50;90.40;;;;;;5029868;28;20771;-88
2021/10/09 02:48:01;;;;;;;22.63;19.30;;;10.40;90.60;;;;;;5014619;28;20215;-88
2021/10/09 02:50:27;;;;;;;22.03;19.63;;;10.30;91.10;;;;;;5014408;28;20553;-89
2021/10/09 02:52:53;;;;;;;22.83;20.47;;;10.20;91.40;;;;;;5021630;28;20207;-88
2021/10/09 02:55:19;;;;;;;22.57;19.53;;;10.20;91.40;;;;;;5016549;28;20190;-88
2021/10/09 02:57:46;;;;;;;22.00;18.13;;;10.20;91.80;;;;;;5013307;28;20655;-88
2021/10/09 03:00:12;;;;;;;22.63;18.50;;;10.20;91.50;;;;;;5014201;28;20670;-89
2021/10/09 03:02:38;;;;;;;20.33;18.10;;;10.20;91.30;;;;;;5017928;28;20369;-89
2021/10/09 03:05:05;;;;;;;21.17;18.97;;;10.30;91.20;;;;;;5014269;28;20667;-88
2021/10/09 03:07:31;;;;;;;23.60;19.60;;;10.40;90.90;;;;;;5012145;28;20199;-88
2021/10/09 03:09:57;;;;;;;20.97;18.37;;;10.30;90.80;;;;;;4996667;28;20694;-89
2021/10/09 03:12:23;;;;;;;21.30;18.90;;;10.40;90.60;;;;;;5012725;28;20230;-88
2021/10/09 03:14:49;;;;;;;23.63;18.60;;;10.40;90.60;;;;;;5013902;28;20200;-89
2021/10/09 03:17:14;;;;;;;19.90;17.97;;;10.50;90.50;;;;;;5031237;28;20627;-89
2021/10/09 03:19:40;;;;;;;24.87;18.37;;;10.60;89.70;;;;;;5014219;28;20215;-89
2021/10/09 03:22:06;;;;;;;20.87;18.67;;;10.60;89.00;;;;;;5014594;28;20235;-89
2021/10/09 03:24:32;;;;;;;21.20;18.90;;;10.50;88.90;;;;;;5013830;28;20210;-89
2021/10/09 03:26:58;;;;;;;18.90;17.00;;;10.50;89.40;;;;;;5000764;28;20188;-89
2021/10/09 03:29:24;;;;;;;18.00;16.23;;;10.50;90.40;;;;;;5017290;28;20193;-89
2021/10/09 03:31:49;;;;;;;20.63;17.13;;;10.60;90.20;;;;;;5012583;28;20705;-89
2021/10/09 03:34:15;;;;;;;18.07;16.23;;;10.70;89.30;;;;;;5013957;28;20240;-89
2021/10/09 03:36:41;;;;;;;17.63;16.03;;;10.70;89.00;;;;;;5011375;28;20282;-89
2021/10/09 03:39:10;;;;;;;18.53;16.70;;;10.80;88.90;;;;;;4994841;28;20463;-89
2021/10/09 03:41:39;;;;;;;20.20;18.03;;;10.90;87.90;;;;;;4997751;28;20207;-89
2021/10/09 03:44:05;;;;;;;21.50;17.07;;;10.90;87.80;;;;;;5017729;28;20212;-89
2021/10/09 03:46:33;;;;;;;19.10;17.20;;;10.90;87.50;;;;;;5017444;28;20203;-89
2021/10/09 03:54:09;;;;;;;21.27;17.33;;;10.70;88.00;;;;;;5018983;28;20231;-88
2021/10/09 03:56:35;;;;;;;19.30;17.40;;;10.80;87.20;;;;;;5016730;28;20192;-89
2021/10/09 03:59:04;;;;;;;18.87;16.30;;;10.80;87.40;;;;;;5018220;28;20201;-89
2021/10/09 04:01:30;;;;;;;21.07;17.33;;;10.80;86.60;;;;;;5017229;28;20215;-89
2021/10/09 04:03:56;;;;;;;19.47;17.27;;;10.80;86.90;;;;;;5015750;28;20248;-89
2021/10/09 04:06:22;;;;;;;18.33;16.53;;;10.80;86.80;;;;;;5018172;28;20181;-89
2021/10/09 04:08:48;;;;;;;19.70;16.87;;;10.80;86.80;;;;;;5016153;28;20211;-88
2021/10/09 04:11:13;;;;;;;18.53;16.60;;;10.80;86.60;;;;;;5016606;28;20244;-90
2021/10/09 04:13:39;;;;;;;21.17;18.70;;;10.90;86.70;;;;;;5017896;28;20316;-89
2021/10/09 04:16:05;;;;;;;21.33;19.23;;;10.80;86.30;;;;;;5034381;28;20192;-89
2021/10/09 04:18:31;;;;;;;20.30;18.07;;;10.70;85.90;;;;;;5019422;28;20665;-90
2021/10/09 04:20:57;;;;;;;23.40;18.63;;;10.50;87.20;;;;;;5027568;28;20179;-89
2021/10/09 04:23:22;;;;;;;21.57;18.00;;;10.40;87.30;;;;;;5021222;28;20218;-90
2021/10/09 04:25:48;;;;;;;20.80;18.53;;;10.30;88.30;;;;;;5037784;28;20195;-89
2021/10/09 04:28:14;;;;;;;23.13;18.63;;;10.20;88.40;;;;;;5020834;28;20194;-89
2021/10/09 04:30:40;;;;;;;19.20;17.30;;;10.00;89.30;;;;;;5022387;28;20200;-89
2021/10/09 04:33:06;;;;;;;19.77;17.70;;;10.00;89.90;;;;;;5022311;28;20210;-89
2021/10/09 04:35:32;;;;;;;21.97;19.70;;;9.90;90.10;;;;;;5019583;28;20223;-89
2021/10/09 04:37:58;;;;;;;21.60;18.27;;;9.90;90.00;;;;;;5020159;28;20266;-90
2021/10/09 04:40:23;;;;;;;20.30;17.83;;;9.80;90.70;;;;;;5008231;28;20655;-89
2021/10/09 04:42:49;;;;;;;21.20;19.00;;;9.80;90.70;;;;;;5022826;28;20234;-90
2021/10/09 04:45:15;;;;;;;21.63;18.60;;;9.80;90.50;;;;;;5023579;28;20278;-89
2021/10/09 04:47:41;;;;;;;21.33;19.10;;;9.80;90.90;;;;;;5069595;28;20213;-89
2021/10/09 04:50:07;;;;;;;21.47;19.23;;;10.00;90.50;;;;;;5032937;28;20225;-88
2021/10/09 04:52:32;;;;;;;23.57;19.50;;;10.00;90.40;;;;;;5017085;28;20285;-89
2021/10/09 04:54:58;;;;;;;20.53;18.30;;;10.00;89.50;;;;;;5004658;28;20187;-89
2021/10/09 04:57:24;;;;;;;19.20;17.40;;;10.10;90.00;;;;;;5018765;28;20219;-89
2021/10/09 04:59:50;;;;;;;24.53;21.47;;;10.10;89.80;;;;;;5017173;28;20222;-89
2021/10/09 05:02:16;;;;;;;25.03;21.30;;;10.10;88.80;;;;;;5020677;28;20219;-89
2021/10/09 05:04:42;;;;;;;24.40;21.83;;;9.90;89.10;;;;;;5022551;28;20682;-89
2021/10/09 05:07:08;;;;;;;22.77;20.53;;;9.90;90.30;;;;;;5017623;28;20209;-89
2021/10/09 05:09:33;;;;;;;22.37;20.03;;;9.90;90.20;;;;;;5014840;28;20213;-89
2021/10/09 05:11:59;;;;;;;21.67;19.43;;;9.90;89.60;;;;;;5008888;28;20222;-89
2021/10/09 05:14:25;;;;;;;21.33;19.20;;;9.90;90.40;;;;;;5016341;28;20290;-89
2021/10/09 05:16:51;;;;;;;19.63;17.83;;;10.00;90.30;;;;;;5031146;28;20199;-89
2021/10/09 05:19:16;;;;;;;20.67;18.57;;;10.10;89.80;;;;;;5036717;28;20412;-90
2021/10/09 05:21:42;;;;;;;18.83;16.03;;;10.00;87.70;;;;;;5033747;28;20203;-89
2021/10/09 05:24:08;;;;;;;21.50;17.80;;;10.10;89.20;;;;;;5017977;28;20281;-89
2021/10/09 05:26:37;;;;;;;21.17;18.63;;;10.10;88.40;;;;;;5039241;28;20229;-89
2021/10/09 05:29:03;;;;;;;18.87;17.03;;;10.20;87.50;;;;;;5021564;28;20640;-89
2021/10/09 05:31:31;;;;;;;19.23;17.20;;;10.10;88.20;;;;;;5022436;28;20226;-89
2021/10/09 05:33:57;;;;;;;21.27;17.73;;;10.00;88.30;;;;;;5022499;28;20202;-89
2021/10/09 05:36:24;;;;;;;20.13;17.83;;;10.00;89.30;;;;;;5029396;28;20175;-89
2021/10/09 05:38:51;;;;;;;17.70;15.90;;;10.00;88.00;;;;;;5033745;28;20183;-89
2021/10/09 05:41:17;;;;;;;19.60;17.53;;;10.00;88.70;;;;;;5033173;28;20285;-89
2021/10/09 05:43:45;;;;;;;17.73;16.07;;;10.00;87.70;;;;;;5034431;28;20213;-89
2021/10/09 05:46:11;;;;;;;18.13;16.30;;;10.00;87.90;;;;;;5030663;28;20214;-89
2021/10/09 05:48:38;;;;;;;17.53;15.60;;;10.00;88.20;;;;;;5023046;28;20679;-90
2021/10/09 05:51:20;;;;;;;23.73;16.90;;;10.00;88.10;;;;;;5038227;28;20180;-90
2021/10/09 05:56:22;;;;;;;18.97;17.03;;;10.00;87.70;;;;;;5021889;28;20238;-89
2021/10/09 05:59:18;;;;;;;20.07;17.97;;;10.10;87.20;;;;;;5023704;28;20184;-89
2021/10/09 06:02:05;;;;;;;21.00;17.23;;;10.10;86.70;;;;;;5033764;28;20291;-88
2021/10/09 06:32:23;;;;;;;24.20;20.20;;;9.20;92.00;;;;;;5020671;28;20224;-89
2021/10/09 06:43:32;;;;;;;38.40;22.63;;;9.10;93.10;;;;;;5021586;28;20240;-88
2021/10/09 06:49:09;;;;;;;63.30;28.07;;;9.30;92.20;;;;;;5035811;28;20357;-88
2021/10/09 06:59:48;;;;;;;29.37;22.53;;;9.40;92.00;;;;;;5021447;28;20208;-88
2021/10/09 07:02:16;;;;;;;25.60;22.37;;;9.30;92.60;;;;;;5044720;28;20217;-89
2021/10/09 07:04:41;;;;;;;22.83;19.10;;;9.40;93.20;;;;;;5030231;28;20859;-89
2021/10/09 07:07:09;;;;;;;47.37;21.23;;;9.30;93.10;;;;;;5016701;28;20186;-89
2021/10/09 07:09:35;;;;;;;44.00;21.40;;;9.30;93.40;;;;;;5008799;28;20269;-89
2021/10/09 07:12:00;;;;;;;29.63;20.27;;;9.40;93.10;;;;;;5016130;28;20240;-88
2021/10/09 07:14:26;;;;;;;33.33;20.30;;;9.40;92.60;;;;;;5003001;28;20677;-89
2021/10/09 07:16:52;;;;;;;31.00;19.53;;;9.40;92.60;;;;;;5010902;28;20189;-89
2021/10/09 07:19:18;;;;;;;29.83;19.53;;;9.50;92.30;;;;;;5017183;28;20531;-90
2021/10/09 07:21:44;;;;;;;38.00;21.07;;;9.40;92.50;;;;;;5018523;28;20263;-89
2021/10/09 07:24:10;;;;;;;23.10;18.47;;;9.50;92.80;;;;;;5020244;28;20210;-89
2021/10/09 07:26:36;;;;;;;27.97;18.67;;;9.60;92.30;;;;;;5021097;28;20216;-89
2021/10/09 07:29:02;;;;;;;24.20;17.13;;;9.70;92.70;;;;;;5017765;28;20201;-89
2021/10/09 07:31:27;;;;;;;35.97;19.23;;;9.80;92.10;;;;;;5015990;28;20210;-89
2021/10/09 07:33:53;;;;;;;24.17;17.63;;;9.80;91.10;;;;;;5017181;28;20201;-89
2021/10/09 07:36:19;;;;;;;23.73;19.17;;;9.90;91.40;;;;;;5018245;28;20208;-89
2021/10/09 07:38:45;;;;;;;22.67;18.17;;;9.90;90.70;;;;;;5019926;28;20182;-88
2021/10/09 07:41:11;;;;;;;23.27;19.13;;;10.00;90.50;;;;;;5009863;28;20223;-89
2021/10/09 07:43:37;;;;;;;26.67;20.23;;;10.00;90.40;;;;;;5006197;28;20205;-89
2021/10/09 07:46:03;;;;;;;19.97;17.10;;;10.10;90.60;;;;;;5004685;28;20186;-89
2021/10/09 07:48:28;;;;;;;24.70;17.17;;;10.20;90.70;;;;;;5025894;28;20204;-89
2021/10/09 07:50:56;;;;;;;22.03;17.83;;;10.30;90.60;;;;;;5029810;28;20193;-89
2021/10/09 07:53:23;;;;;;;23.97;16.77;;;10.30;89.00;;;;;;5021372;28;20209;-89
2021/10/09 07:55:48;;;;;;;21.87;17.27;;;10.40;88.40;;;;;;5026137;28;20198;-89
2021/10/09 07:58:14;;;;;;;23.93;17.87;;;10.50;88.50;;;;;;5023960;28;20212;-89
2021/10/09 08:00:40;;;;;;;21.73;18.20;;;10.50;88.50;;;;;;5024628;28;20270;-89
2021/10/09 08:03:06;;;;;;;21.93;16.97;;;10.60;88.60;;;;;;5023983;28;20225;-89
2021/10/09 08:05:34;;;;;;;18.13;16.13;;;10.70;87.50;;;;;;5022242;28;20184;-89
2021/10/09 08:08:01;;;;;;;19.33;17.27;;;10.70;86.30;;;;;;5022945;28;20189;-89
2021/10/09 08:10:27;;;;;;;20.07;16.73;;;10.80;86.60;;;;;;5004688;28;20201;-89
2021/10/09 08:12:53;;;;;;;21.50;15.80;;;10.90;87.00;;;;;;5021061;28;20218;-89
2021/10/09 08:15:18;;;;;;;18.40;15.90;;;11.00;86.70;;;;;;5023417;28;20190;-89
2021/10/09 08:17:44;;;;;;;19.77;15.77;;;11.10;86.70;;;;;;5025408;28;20195;-89
2021/10/09 08:20:16;;;;;;;21.67;16.50;;;11.10;86.60;;;;;;5020460;28;20250;-89
2021/10/09 08:22:54;;;;;;;18.80;15.43;;;11.10;85.60;;;;;;5010310;28;20229;-89
2021/10/09 08:35:19;;;;;;;22.93;17.77;;;11.20;85.20;;;;;;5030701;28;20199;-89
2021/10/09 08:36:28;;;;;;;21.53;15.73;;;11.30;86.10;;;;;;5022153;28;20196;-89
2021/10/09 08:38:54;;;;;;;19.90;16.50;;;11.40;84.30;;;;;;5022023;28;20204;-89
2021/10/09 08:41:21;;;;;;;19.00;16.13;;;11.40;84.10;;;;;;5015913;28;20209;-89
2021/10/09 08:43:49;;;;;;;20.20;15.07;;;11.40;84.60;;;;;;5019083;28;20361;-88
2021/10/09 08:46:16;;;;;;;19.37;16.00;;;11.50;83.70;;;;;;5021732;28;20185;-88
2021/10/09 08:48:51;;;;;;;18.33;15.63;;;11.50;83.80;;;;;;5018988;28;20183;-88
2021/10/09 08:51:31;;;;;;;20.33;15.60;;;11.60;83.90;;;;;;5035169;28;20230;-88
2021/10/09 08:54:06;;;;;;;19.00;15.90;;;11.70;82.90;;;;;;5012861;28;20192;-87
2021/10/09 08:56:34;;;;;;;18.90;16.27;;;11.90;82.70;;;;;;5027972;28;20187;-89
2021/10/09 08:59:34;;;;;;;17.57;15.77;;;12.00;82.20;;;;;;5020182;28;20188;-89
2021/10/09 09:02:26;;;;;;;18.43;16.20;;;12.20;81.50;;;;;;5010003;28;20285;-90
2021/10/09 09:05:00;;;;;;;17.20;15.40;;;12.30;81.70;;;;;;5032598;28;20200;-88
2021/10/09 09:25:24;;;;;;;23.53;16.00;;;12.40;80.70;;;;;;5020207;28;20520;-89
2021/10/09 09:27:16;;;;;;;21.90;17.27;;;13.10;79.20;;;;;;5015955;28;20231;-89
2021/10/09 09:33:04;;;;;;;17.97;16.10;;;13.40;78.00;;;;;;5019459;28;20232;-89
2021/10/09 09:35:53;;;;;;;19.07;15.17;;;13.60;77.20;;;;;;5027433;28;20201;-88
2021/10/09 09:41:12;;;;;;;17.77;15.87;;;13.90;75.30;;;;;;5016844;28;20192;-89
2021/10/09 09:43:40;;;;;;;17.97;16.17;;;14.00;74.70;;;;;;5014902;28;20288;-89
2021/10/09 09:46:14;;;;;;;29.97;17.40;;;13.90;75.20;;;;;;5019306;28;20316;-89
2021/10/09 09:48:45;;;;;;;19.37;17.30;;;13.90;75.50;;;;;;5030080;28;20221;-89
2021/10/09 09:51:13;;;;;;;20.97;15.93;;;13.90;75.20;;;;;;5013122;28;20210;-89
2021/10/09 09:53:40;;;;;;;21.83;15.07;;;14.10;75.10;;;;;;4997816;28;20206;-89
2021/10/09 09:56:12;;;;;;;18.03;16.10;;;14.40;74.20;;;;;;5016517;28;20190;-88
2021/10/09 09:58:43;;;;;;;17.37;15.43;;;14.60;73.60;;;;;;5019721;28;20240;-89
2021/10/09 10:01:11;;;;;;;18.83;15.87;;;14.70;73.50;;;;;;5012720;28;20218;-89
2021/10/09 10:03:41;;;;;;;19.63;16.90;;;14.90;72.40;;;;;;5009765;28;20240;-89
2021/10/09 10:06:07;;;;;;;17.50;15.70;;;15.00;72.20;;;;;;5018297;28;20209;-89
2021/10/09 10:08:33;;;;;;;18.17;16.23;;;15.30;72.00;;;;;;5020469;28;20198;-89
2021/10/09 10:11:02;;;;;;;19.13;15.30;;;15.30;70.30;;;;;;5021496;28;20565;-89
2021/10/09 10:13:31;;;;;;;17.50;15.53;;;15.50;71.30;;;;;;5016511;28;20608;-89
2021/10/09 10:15:58;;;;;;;17.83;15.90;;;15.80;69.50;;;;;;5016131;28;20185;-89
2021/10/09 10:18:46;;;;;;;18.00;16.10;;;15.90;68.60;;;;;;5027355;28;20195;-89
2021/10/09 10:21:18;;;;;;;18.83;16.83;;;16.00;68.00;;;;;;5021393;28;20247;-89
2021/10/09 10:23:46;;;;;;;21.17;15.73;;;16.20;67.00;;;;;;5033351;28;20312;-89
2021/10/09 10:26:21;;;;;;;17.27;15.03;;;16.30;65.80;;;;;;5016141;28;20192;-89
2021/10/09 10:28:55;;;;;;;17.03;15.33;;;16.30;66.70;;;;;;5022895;28;20181;-89
2021/10/09 10:31:23;;;;;;;17.13;14.83;;;16.40;65.10;;;;;;5030462;28;20210;-89
2021/10/09 10:34:01;;;;;;;17.43;15.63;;;16.50;65.20;;;;;;5031976;28;20173;-89
2021/10/09 10:36:41;;;;;;;17.07;14.57;;;16.70;65.10;;;;;;5019752;28;20262;-89
2021/10/09 10:39:08;;;;;;;16.60;14.73;;;17.00;64.50;;;;;;5014791;28;20231;-89
2021/10/09 10:41:56;;;;;;;17.97;16.13;;;17.10;63.90;;;;;;5033727;28;20753;-89
2021/10/09 10:53:26;;;;;;;16.67;14.97;;;17.20;63.10;;;;;;5016457;28;20186;-89
2021/10/09 10:56:06;;;;;;;18.47;15.33;;;17.20;62.80;;;;;;5031337;28;20177;-89
2021/10/09 10:58:32;;;;;;;17.03;15.27;;;17.20;61.30;;;;;;5017614;28;20195;-89
2021/10/09 11:01:24;;;;;;;15.43;14.03;;;17.20;62.80;;;;;;5018917;28;20223;-89
2021/10/09 11:03:52;;;;;;;17.87;16.17;;;17.30;63.20;;;;;;5023234;28;20221;-89
2021/10/09 11:06:22;;;;;;;16.37;14.67;;;17.50;61.50;;;;;;5019612;28;20203;-89
2021/10/09 11:08:48;;;;;;;17.57;15.37;;;17.70;61.60;;;;;;5018880;28;20275;-89
2021/10/09 11:11:15;;;;;;;17.10;15.43;;;17.30;62.10;;;;;;5017864;28;20227;-89
2021/10/09 11:13:46;;;;;;;18.10;15.13;;;17.40;62.20;;;;;;5016094;28;20213;-89
2021/10/09 11:16:11;;;;;;;15.93;14.23;;;17.60;60.90;;;;;;5016843;28;20201;-90
2021/10/09 11:18:51;;;;;;;15.83;14.13;;;17.80;60.40;;;;;;5005435;28;20201;-89
2021/10/09 11:21:17;;;;;;;17.97;14.97;;;17.90;60.10;;;;;;5015250;28;20218;-89
2021/10/09 11:24:09;;;;;;;17.90;16.00;;;18.10;58.80;;;;;;5015756;28;20288;-89
2021/10/09 11:26:52;;;;;;;16.13;14.53;;;18.00;59.50;;;;;;4998506;28;20207;-90
2021/10/09 11:29:18;;;;;;;15.97;14.30;;;18.30;58.40;;;;;;5016100;28;20272;-89
2021/10/09 11:31:45;;;;;;;15.70;14.27;;;18.60;57.60;;;;;;5018766;28;20252;-89
2021/10/09 11:34:10;;;;;;;18.73;15.18;;;18.60;57.60;;;;;;5019816;28;20190;-90
2021/10/09 11:36:39;;;;;;;14.88;13.40;;;18.60;57.10;;;;;;5015970;28;20190;-91
2021/10/09 11:39:15;;;;;;;15.57;14.00;;;19.00;56.20;;;;;;5002818;28;20205;-91
2021/10/09 11:41:44;;;;;;;16.35;13.00;;;19.20;56.30;;;;;;5009097;28;20211;-91
2021/10/09 11:44:26;;;;;;;16.55;14.82;;;19.20;56.40;;;;;;5014291;28;20217;-91
2021/10/09 11:55:14;;;;;;;15.70;14.20;;;19.50;54.60;;;;;;5021766;28;20211;-90
2021/10/09 11:57:40;;;;;;;16.25;14.65;;;19.80;53.90;;;;;;5025987;28;20666;-90
2021/10/09 12:00:29;;;;;;;18.90;15.55;;;19.90;53.90;;;;;;5008916;28;20198;-90
2021/10/09 12:02:55;;;;;;;16.08;13.90;;;19.80;54.30;;;;;;5009131;28;20210;-91
2021/10/09 12:05:21;;;;;;;16.02;14.48;;;20.00;53.80;;;;;;5009981;28;20182;-89
2021/10/09 12:08:26;;;;;;;17.85;14.70;;;20.10;52.10;;;;;;5011178;28;20189;-90
2021/10/09 12:11:06;;;;;;;17.65;14.50;;;20.00;52.70;;;;;;4998296;28;20737;-91
2021/10/09 12:13:43;;;;;;;15.80;14.18;;;19.70;52.00;;;;;;5010837;28;20204;-90
2021/10/09 12:16:08;;;;;;;14.80;13.25;;;20.00;51.70;;;;;;5015107;28;20193;-90
2021/10/09 12:18:54;;;;;;;15.40;13.90;;;20.30;52.20;;;;;;5016361;28;20212;-90
2021/10/09 12:21:22;;;;;;;20.38;14.48;;;20.30;50.90;;;;;;5014776;28;20217;-90
2021/10/09 12:23:48;;;;;;;16.70;14.88;;;20.30;51.00;;;;;;5012387;28;20696;-90
2021/10/09 12:26:18;;;;;;;18.67;14.85;;;20.60;50.40;;;;;;5012567;28;20198;-90
2021/10/09 12:29:03;;;;;;;15.95;14.30;;;20.20;50.20;;;;;;5015347;28;20236;-90
2021/10/09 12:31:30;;;;;;;15.30;13.48;;;20.30;51.60;;;;;;5013867;28;20211;-90
2021/10/09 12:33:56;;;;;;;15.13;13.35;;;20.80;49.10;;;;;;4978523;28;20198;-90
2021/10/09 12:36:38;;;;;;;15.98;14.27;;;21.20;48.60;;;;;;5020698;28;20528;-90
2021/10/09 12:39:23;;;;;;;16.08;14.18;;;21.00;49.10;;;;;;5034674;28;20187;-90
2021/10/09 12:41:55;;;;;;;14.32;12.85;;;21.10;48.20;;;;;;5022717;28;20217;-87
2021/10/09 12:44:22;;;;;;;14.85;13.48;;;21.40;47.60;;;;;;5028950;28;20201;-89
2021/10/09 12:46:47;;;;;;;16.17;13.05;;;21.20;48.70;;;;;;5023013;28;20192;-88
2021/10/09 12:49:14;;;;;;;15.43;13.90;;;21.50;47.70;;;;;;5018703;28;20197;-88
2021/10/09 12:51:40;;;;;;;15.77;14.30;;;21.60;47.60;;;;;;5014153;28;20352;-88
2021/10/09 12:54:07;;;;;;;15.38;13.75;;;21.70;45.80;;;;;;5016460;28;20192;-89
2021/10/09 12:56:35;;;;;;;14.25;12.77;;;21.30;47.10;;;;;;5030173;28;20201;-89
2021/10/09 12:59:01;;;;;;;14.98;12.65;;;20.90;48.30;;;;;;5011622;28;20657;-89
2021/10/09 13:01:29;;;;;;;15.63;13.95;;;20.90;49.10;;;;;;5018011;28;20292;-89
2021/10/09 13:03:54;;;;;;;14.82;13.32;;;20.90;49.00;;;;;;5026004;28;20389;-89
2021/10/09 13:06:20;;;;;;;15.80;14.20;;;21.00;49.50;;;;;;5028410;28;20192;-89
2021/10/09 13:08:46;;;;;;;16.02;14.38;;;21.20;47.80;;;;;;5028244;28;20192;-89
2021/10/09 13:11:12;;;;;;;15.23;13.82;;;21.30;47.50;;;;;;5022511;28;20229;-89
2021/10/09 13:13:39;;;;;;;14.88;13.23;;;21.10;47.80;;;;;;5018468;28;20316;-89
2021/10/09 13:16:06;;;;;;;15.23;13.75;;;21.40;47.00;;;;;;5016522;28;20207;-89
2021/10/09 13:18:32;;;;;;;15.05;13.55;;;21.50;46.70;;;;;;5037500;28;20207;-89
2021/10/09 13:20:58;;;;;;;15.02;13.55;;;21.10;47.80;;;;;;5017396;28;20191;-89
2021/10/09 13:23:24;;;;;;;16.15;14.52;;;21.10;47.40;;;;;;5034718;28;20248;-89
2021/10/09 13:25:50;;;;;;;16.45;14.02;;;21.50;47.00;;;;;;5020871;28;20189;-89
2021/10/09 13:28:15;;;;;;;18.42;14.20;;;21.50;46.20;;;;;;5021397;28;20192;-88
2021/10/09 13:30:41;;;;;;;16.25;13.52;;;21.40;46.80;;;;;;5015678;28;20293;-89
2021/10/09 13:33:07;;;;;;;14.43;12.98;;;21.50;46.70;;;;;;5015185;28;20247;-89
2021/10/09 13:35:33;;;;;;;14.40;13.05;;;21.60;46.10;;;;;;5011938;28;20188;-89
2021/10/09 13:38:01;;;;;;;15.63;14.05;;;21.60;45.90;;;;;;5012682;28;20680;-89
2021/10/09 13:40:27;;;;;;;13.93;12.32;;;21.80;45.30;;;;;;5016461;28;20197;-89
2021/10/09 13:42:52;;;;;;;14.77;13.32;;;22.20;44.70;;;;;;5013957;28;20214;-90
2021/10/09 13:45:18;;;;;;;14.68;13.18;;;22.50;43.90;;;;;;5016683;28;20178;-89
2021/10/09 13:47:44;;;;;;;16.08;14.15;;;22.30;44.10;;;;;;5016356;28;20312;-89
2021/10/09 13:50:12;;;;;;;15.27;12.95;;;22.10;44.10;;;;;;5009667;28;20221;-89
2021/10/09 13:52:38;;;;;;;13.77;12.48;;;21.80;44.70;;;;;;5015937;28;20705;-88
2021/10/09 13:55:05;;;;;;;15.98;13.50;;;22.10;44.50;;;;;;5015911;28;20526;-89
2021/10/09 13:57:30;;;;;;;14.93;13.45;;;22.30;44.10;;;;;;5010242;28;20202;-89
2021/10/09 13:59:56;;;;;;;15.75;14.18;;;22.60;43.20;;;;;;5009109;28;20247;-88
2021/10/09 14:02:23;;;;;;;17.83;14.27;;;22.20;43.70;;;;;;5017064;28;20224;-89
2021/10/09 14:04:49;;;;;;;16.48;14.20;;;22.30;43.40;;;;;;5014486;28;20205;-89
2021/10/09 14:07:15;;;;;;;15.05;12.80;;;22.30;43.60;;;;;;5009749;28;20296;-87
2021/10/09 14:09:41;;;;;;;14.63;12.75;;;22.20;44.10;;;;;;5010312;28;20198;-87
2021/10/09 14:12:07;;;;;;;15.13;13.30;;;22.20;44.30;;;;;;5013190;28;20317;-88
2021/10/09 14:14:33;;;;;;;15.50;13.10;;;22.10;44.10;;;;;;5015374;28;20194;-87
2021/10/09 14:16:59;;;;;;;14.38;12.88;;;22.10;43.70;;;;;;5013037;28;20189;-88
2021/10/09 14:19:24;;;;;;;14.65;13.25;;;22.30;43.20;;;;;;5015001;28;20193;-87
2021/10/09 14:21:50;;;;;;;14.65;13.35;;;22.20;42.90;;;;;;5034913;28;20216;-88
2021/10/09 14:24:19;;;;;;;13.60;12.20;;;21.90;44.00;;;;;;5000000;28;20304;-87
2021/10/09 14:26:45;;;;;;;14.48;13.10;;;21.80;43.60;;;;;;5015828;28;20193;-87
2021/10/09 14:29:11;;;;;;;13.57;12.18;;;21.80;43.60;;;;;;5018226;28;20213;-87